createdAt,value
2018-07-10T00:00:30.137Z,60.37
2018-07-10T00:01:10.676Z,60.37
2018-07-10T00:01:51.216Z,60.47
2018-07-10T00:02:31.736Z,60.57
2018-07-10T00:03:12.257Z,60.5
2018-07-10T00:03:52.794Z,60.27
2018-07-10T00:04:33.327Z,60.27
2018-07-10T00:05:13.852Z,59.98
2018-07-10T00:05:54.373Z,60.08
2018-07-10T00:06:34.891Z,59.98
2018-07-10T00:07:15.426Z,59.98
2018-07-10T00:07:55.995Z,60.85
2018-07-10T00:08:36.499Z,60.3
2018-07-10T00:09:17.017Z,60.27
2018-07-10T00:09:57.569Z,60.37
2018-07-10T00:10:38.083Z,60.01
2018-07-10T00:11:18.614Z,60.21
2018-07-10T00:11:59.192Z,60.01
2018-07-10T00:12:39.682Z,60.5
2018-07-10T00:13:20.233Z,60.85
2018-07-10T00:14:00.741Z,60.75
2018-07-10T00:14:41.283Z,61.24
2018-07-10T00:15:21.825Z,61.24
2018-07-10T00:16:02.336Z,60.75
2018-07-10T00:16:42.852Z,61.24
2018-07-10T00:17:23.373Z,61.43
2018-07-10T00:18:03.888Z,61.53
2018-07-10T00:18:44.414Z,60.95
2018-07-10T00:19:24.944Z,61.24
2018-07-10T00:20:05.455Z,60.75
2018-07-10T00:20:45.987Z,60.66
2018-07-10T00:21:26.512Z,60.47
2018-07-10T00:22:07.048Z,60.75
2018-07-10T00:22:47.572Z,61.43
2018-07-10T00:23:28.102Z,61.43
2018-07-10T00:24:08.617Z,62.3
2018-07-10T00:24:49.141Z,62.08
2018-07-10T00:25:29.666Z,62.08
2018-07-10T00:26:10.184Z,61.98
2018-07-10T00:26:50.700Z,62.11
2018-07-10T00:27:31.217Z,62.01
2018-07-10T00:28:11.748Z,62.21
2018-07-10T00:28:52.265Z,61.82
2018-07-10T00:29:32.786Z,61.63
2018-07-10T00:30:13.315Z,61.63
2018-07-10T00:30:53.833Z,61.53
2018-07-10T00:31:34.365Z,61.43
2018-07-10T00:32:14.888Z,61.15
2018-07-10T00:32:55.406Z,61.24
2018-07-10T00:33:35.924Z,60.75
2018-07-10T00:34:16.440Z,60.75
2018-07-10T00:34:56.972Z,60.75
2018-07-10T00:35:37.505Z,61.15
2018-07-10T00:36:18.115Z,61.53
2018-07-10T00:36:58.651Z,61.82
2018-07-10T00:37:39.200Z,61.33
2018-07-10T00:38:19.725Z,61.63
2018-07-10T00:39:00.255Z,61.53
2018-07-10T00:39:40.780Z,61.43
2018-07-10T00:40:21.282Z,61.53
2018-07-10T00:41:01.871Z,62.3
2018-07-10T00:41:42.410Z,62.21
2018-07-10T00:42:22.941Z,61.63
2018-07-10T00:43:03.456Z,62.11
2018-07-10T00:43:44.005Z,62.01
2018-07-10T00:44:24.562Z,62.11
2018-07-10T00:45:05.073Z,62.11
2018-07-10T00:45:45.639Z,61.69
2018-07-10T00:46:26.108Z,61.92
2018-07-10T00:47:06.623Z,61.53
2018-07-10T00:47:47.152Z,61.72
2018-07-10T00:48:27.673Z,61.92
2018-07-10T00:49:08.213Z,61.92
2018-07-10T00:49:48.733Z,62.11
2018-07-10T00:50:29.256Z,62.11
2018-07-10T00:51:09.790Z,62.11
2018-07-10T00:51:50.308Z,63.05
2018-07-10T00:52:30.808Z,62.95
2018-07-10T00:53:11.359Z,63.24
2018-07-10T00:53:51.893Z,63.43
2018-07-10T00:54:32.464Z,63.14
2018-07-10T00:55:12.978Z,63.14
2018-07-10T00:55:53.486Z,63.34
2018-07-10T00:56:34.007Z,63.24
2018-07-10T00:57:14.545Z,62.95
2018-07-10T00:57:55.076Z,63.05
2018-07-10T00:58:35.586Z,63.46
2018-07-10T00:59:16.104Z,63.05
2018-07-10T00:59:56.614Z,63.24
2018-07-10T01:00:37.144Z,63.92
2018-07-10T01:01:17.684Z,63.73
2018-07-10T01:01:58.220Z,63.34
2018-07-10T01:02:38.754Z,63.24
2018-07-10T01:03:19.288Z,63.73
2018-07-10T01:03:59.810Z,63.43
2018-07-10T01:04:40.350Z,63.82
2018-07-10T01:05:20.875Z,63.73
2018-07-10T01:06:01.403Z,64.31
2018-07-10T01:06:41.938Z,63.63
2018-07-10T01:07:22.464Z,64.01
2018-07-10T01:08:02.986Z,63.73
2018-07-10T01:08:43.517Z,64.01
2018-07-10T01:09:24.043Z,64.79
2018-07-10T01:10:04.561Z,64.69
2018-07-10T01:10:45.098Z,64.59
2018-07-10T01:11:25.623Z,64.21
2018-07-10T01:12:06.138Z,64.79
2018-07-10T01:12:46.669Z,64.59
2018-07-10T01:13:27.200Z,64.59
2018-07-10T01:14:07.726Z,64.59
2018-07-10T01:14:48.253Z,64.5
2018-07-10T01:15:28.793Z,64.59
2018-07-10T01:16:09.312Z,64.5
2018-07-10T01:16:49.843Z,64.4
2018-07-10T01:17:30.380Z,64.89
2018-07-10T01:18:10.901Z,64.79
2018-07-10T01:18:51.480Z,65.08
2018-07-10T01:19:31.948Z,65.27
2018-07-10T01:20:12.470Z,65.47
2018-07-10T01:20:53.002Z,65.08
2018-07-10T01:21:33.535Z,65.17
2018-07-10T01:22:14.043Z,65.66
2018-07-10T01:22:54.565Z,65.17
2018-07-10T01:23:35.072Z,65.47
2018-07-10T01:24:15.595Z,65.56
2018-07-10T01:24:56.126Z,65.66
2018-07-10T01:25:36.663Z,65.56
2018-07-10T01:26:17.184Z,65.27
2018-07-10T01:26:57.711Z,64.79
2018-07-10T01:27:38.232Z,64.79
2018-07-10T01:28:18.749Z,65.27
2018-07-10T01:28:59.281Z,65.56
2018-07-10T01:29:39.802Z,65.17
2018-07-10T01:30:20.333Z,64.79
2018-07-10T01:31:00.865Z,65.75
2018-07-10T01:31:41.402Z,65.27
2018-07-10T01:32:21.930Z,65.56
2018-07-10T01:33:02.455Z,65.56
2018-07-10T01:33:43.010Z,65.66
2018-07-10T01:34:23.507Z,66.05
2018-07-10T01:35:04.036Z,66.05
2018-07-10T01:35:44.574Z,65.75
2018-07-10T01:36:25.092Z,65.85
2018-07-10T01:37:05.606Z,65.85
2018-07-10T01:37:46.132Z,65.72
2018-07-10T01:38:26.659Z,66.05
2018-07-10T01:39:07.174Z,65.75
2018-07-10T01:39:47.701Z,66.05
2018-07-10T01:40:28.217Z,65.66
2018-07-10T01:41:08.748Z,66.05
2018-07-10T01:41:49.261Z,66.14
2018-07-10T01:42:29.783Z,65.56
2018-07-10T01:43:10.303Z,65.95
2018-07-10T01:43:50.834Z,65.95
2018-07-10T01:44:31.360Z,66.05
2018-07-10T01:45:11.875Z,65.85
2018-07-10T01:45:52.395Z,66.05
2018-07-10T01:46:32.913Z,66.05
2018-07-10T01:47:13.440Z,65.95
2018-07-10T01:47:53.961Z,65.66
2018-07-10T01:48:34.489Z,66.05
2018-07-10T01:49:15.015Z,66.01
2018-07-10T01:49:55.541Z,66.3
2018-07-10T01:50:36.059Z,66.05
2018-07-10T01:51:16.588Z,65.72
2018-07-10T01:51:57.103Z,66.11
2018-07-10T01:52:37.636Z,66.78
2018-07-10T01:53:18.163Z,66.63
2018-07-10T01:53:58.667Z,66.24
2018-07-10T01:54:39.194Z,65.95
2018-07-10T01:55:19.737Z,66.14
2018-07-10T01:56:00.281Z,66.14
2018-07-10T01:56:40.790Z,65.95
2018-07-10T01:57:21.323Z,65.75
2018-07-10T01:58:01.861Z,65.95
2018-07-10T01:58:42.384Z,66.53
2018-07-10T01:59:22.918Z,66.53
2018-07-10T02:00:03.432Z,66.24
2018-07-10T02:00:43.952Z,66.05
2018-07-10T02:01:24.486Z,66.24
2018-07-10T02:02:05.019Z,65.95
2018-07-10T02:02:45.534Z,65.85
2018-07-10T02:03:26.066Z,65.56
2018-07-10T02:04:06.595Z,66.05
2018-07-10T02:04:47.148Z,65.85
2018-07-10T02:05:27.678Z,65.66
2018-07-10T02:06:08.219Z,66.14
2018-07-10T02:06:48.732Z,65.75
2018-07-10T02:07:30.125Z,65.85
2018-07-10T02:08:10.645Z,65.85
2018-07-10T02:08:51.166Z,66.11
2018-07-10T02:09:31.699Z,66.14
2018-07-10T02:10:12.216Z,66.24
2018-07-10T02:10:52.737Z,66.05
2018-07-10T02:11:33.263Z,66.14
2018-07-10T02:12:13.772Z,66.98
2018-07-10T02:12:54.298Z,67.17
2018-07-10T02:13:34.808Z,66.98
2018-07-10T02:14:15.337Z,66.78
2018-07-10T02:14:55.855Z,67.17
2018-07-10T02:15:36.408Z,67.08
2018-07-10T02:16:16.933Z,66.78
2018-07-10T02:16:57.464Z,67.08
2018-07-10T02:17:37.990Z,67.08
2018-07-10T02:18:18.508Z,67.08
2018-07-10T02:18:59.029Z,66.88
2018-07-10T02:19:39.543Z,66.5
2018-07-10T02:20:20.068Z,66.98
2018-07-10T02:21:00.585Z,66.98
2018-07-10T02:21:41.107Z,67.17
2018-07-10T02:22:21.663Z,66.59
2018-07-10T02:23:02.183Z,66.4
2018-07-10T02:23:42.722Z,66.4
2018-07-10T02:24:23.240Z,66.98
2018-07-10T02:25:03.755Z,66.98
2018-07-10T02:25:44.286Z,66.98
2018-07-10T02:26:24.813Z,67.27
2018-07-10T02:27:05.333Z,67.14
2018-07-10T02:27:45.857Z,66.5
2018-07-10T02:28:26.389Z,67.04
2018-07-10T02:29:06.967Z,66.17
2018-07-10T02:29:47.439Z,66.66
2018-07-10T02:30:27.962Z,66.56
2018-07-10T02:31:08.490Z,66.94
2018-07-10T02:31:49.015Z,66.27
2018-07-10T02:32:29.540Z,66.46
2018-07-10T02:33:10.065Z,66.56
2018-07-10T02:33:50.590Z,66.66
2018-07-10T02:34:31.103Z,66.78
2018-07-10T02:35:11.628Z,66.11
2018-07-10T02:35:52.151Z,66.01
2018-07-10T02:36:32.687Z,66.01
2018-07-10T02:37:13.219Z,65.82
2018-07-10T02:37:53.748Z,66.85
2018-07-10T02:38:34.260Z,66.85
2018-07-10T02:39:14.803Z,66.66
2018-07-10T02:39:55.346Z,66.66
2018-07-10T02:40:35.877Z,66.46
2018-07-10T02:41:16.419Z,66.66
2018-07-10T02:41:56.935Z,66.75
2018-07-10T02:42:37.455Z,65.98
2018-07-10T02:43:17.974Z,66.08
2018-07-10T02:43:58.487Z,66.27
2018-07-10T02:44:38.986Z,66.46
2018-07-10T02:45:19.508Z,66.56
2018-07-10T02:46:00.052Z,66.66
2018-07-10T02:46:40.563Z,66.94
2018-07-10T02:47:21.097Z,67.24
2018-07-10T02:48:01.640Z,67.2
2018-07-10T02:48:42.165Z,66.85
2018-07-10T02:49:22.690Z,67.3
2018-07-10T02:50:03.203Z,67.52
2018-07-10T02:50:43.737Z,66.94
2018-07-10T02:51:24.266Z,67.62
2018-07-10T02:52:04.792Z,67.62
2018-07-10T02:52:45.312Z,67.33
2018-07-10T02:53:25.827Z,67.82
2018-07-10T02:54:06.359Z,67.14
2018-07-10T02:54:46.872Z,67.24
2018-07-10T02:55:27.407Z,67.52
2018-07-10T02:56:07.934Z,66.91
2018-07-10T02:56:48.464Z,67.52
2018-07-10T02:57:28.979Z,67.62
2018-07-10T02:58:09.505Z,67.43
2018-07-10T02:58:50.036Z,66.94
2018-07-10T02:59:30.565Z,66.75
2018-07-10T03:00:11.106Z,67.14
2018-07-10T03:00:51.626Z,67.43
2018-07-10T03:01:32.324Z,67.82
2018-07-10T03:02:12.686Z,68.01
2018-07-10T03:02:53.220Z,68.1
2018-07-10T03:03:33.747Z,67.91
2018-07-10T03:04:14.311Z,68.01
2018-07-10T03:04:54.842Z,68.01
2018-07-10T03:05:35.367Z,67.43
2018-07-10T03:06:15.892Z,67.33
2018-07-10T03:06:56.416Z,67.52
2018-07-10T03:07:36.945Z,67.43
2018-07-10T03:08:17.478Z,67.62
2018-07-10T03:08:58.004Z,66.94
2018-07-10T03:09:38.525Z,67.43
2018-07-10T03:10:19.037Z,67.33
2018-07-10T03:10:59.562Z,67.14
2018-07-10T03:11:40.098Z,67.14
2018-07-10T03:12:20.621Z,66.75
2018-07-10T03:13:01.144Z,66.85
2018-07-10T03:13:41.651Z,66.94
2018-07-10T03:14:22.170Z,66.56
2018-07-10T03:15:02.701Z,67.04
2018-07-10T03:15:43.215Z,66.56
2018-07-10T03:16:23.746Z,67.43
2018-07-10T03:17:04.271Z,66.94
2018-07-10T03:17:44.810Z,67.24
2018-07-10T03:18:25.338Z,66.75
2018-07-10T03:19:05.859Z,66.36
2018-07-10T03:19:46.386Z,66.08
2018-07-10T03:20:26.904Z,66.66
2018-07-10T03:21:07.412Z,66.27
2018-07-10T03:21:47.943Z,66.56
2018-07-10T03:22:28.467Z,66.85
2018-07-10T03:23:08.992Z,66.94
2018-07-10T03:23:49.514Z,67.14
2018-07-10T03:24:30.051Z,66.85
2018-07-10T03:25:10.569Z,66.94
2018-07-10T03:25:51.090Z,66.75
2018-07-10T03:26:31.671Z,66.85
2018-07-10T03:27:12.134Z,66.85
2018-07-10T03:27:52.668Z,66.94
2018-07-10T03:28:33.178Z,66.94
2018-07-10T03:29:13.699Z,67.33
2018-07-10T03:29:54.214Z,67.14
2018-07-10T03:30:34.733Z,67.33
2018-07-10T03:31:15.257Z,67.33
2018-07-10T03:31:55.768Z,67.33
2018-07-10T03:32:36.298Z,67.52
2018-07-10T03:33:16.812Z,67.43
2018-07-10T03:33:57.342Z,67.33
2018-07-10T03:34:37.917Z,67.43
2018-07-10T03:35:18.448Z,67.62
2018-07-10T03:35:58.998Z,67.33
2018-07-10T03:36:39.530Z,67.43
2018-07-10T03:37:20.062Z,68.1
2018-07-10T03:38:00.577Z,68.2
2018-07-10T03:38:41.098Z,67.82
2018-07-10T03:39:21.625Z,68.1
2018-07-10T03:40:02.158Z,67.82
2018-07-10T03:40:42.695Z,68.2
2018-07-10T03:41:23.195Z,68.2
2018-07-10T03:42:03.730Z,68.68
2018-07-10T03:42:44.261Z,68.4
2018-07-10T03:43:24.777Z,68.4
2018-07-10T03:44:05.534Z,68.4
2018-07-10T03:44:46.125Z,68.4
2018-07-10T03:45:26.553Z,68.49
2018-07-10T03:46:07.071Z,68.4
2018-07-10T03:46:47.586Z,68.4
2018-07-10T03:47:28.097Z,68.2
2018-07-10T03:48:08.626Z,68.49
2018-07-10T03:48:49.139Z,68.78
2018-07-10T03:49:29.675Z,68.4
2018-07-10T03:50:10.201Z,68.3
2018-07-10T03:50:50.721Z,68.75
2018-07-10T03:51:31.249Z,69.17
2018-07-10T03:52:11.774Z,68.55
2018-07-10T03:52:52.311Z,68.75
2018-07-10T03:53:32.827Z,68.84
2018-07-10T03:54:13.373Z,69.13
2018-07-10T03:54:53.899Z,69.32
2018-07-10T03:55:34.430Z,69.23
2018-07-10T03:56:14.946Z,69.42
2018-07-10T03:56:55.476Z,69.58
2018-07-10T03:57:36.018Z,69.9
2018-07-10T03:58:16.532Z,69.87
2018-07-10T03:58:57.084Z,69.87
2018-07-10T03:59:37.616Z,69.97
2018-07-10T04:00:18.197Z,69.87
2018-07-10T04:00:58.718Z,70.36
2018-07-10T04:01:39.263Z,70.26
2018-07-10T04:02:19.774Z,69.97
2018-07-10T04:03:00.328Z,70.26
2018-07-10T04:03:40.859Z,70
2018-07-10T04:04:21.382Z,70.45
2018-07-10T04:05:01.994Z,70.45
2018-07-10T04:05:42.510Z,70.16
2018-07-10T04:06:23.044Z,70.84
2018-07-10T04:07:03.561Z,70.26
2018-07-10T04:07:44.211Z,70.26
2018-07-10T04:08:24.729Z,69.97
2018-07-10T04:09:05.301Z,70
2018-07-10T04:09:45.791Z,69.71
2018-07-10T04:10:26.324Z,69.62
2018-07-10T04:11:06.829Z,69.68
2018-07-10T04:11:47.457Z,69.78
2018-07-10T04:12:27.889Z,69.71
2018-07-10T04:13:08.410Z,70
2018-07-10T04:13:48.932Z,70
2018-07-10T04:14:29.464Z,69.87
2018-07-10T04:15:09.983Z,69.97
2018-07-10T04:15:50.535Z,70.16
2018-07-10T04:16:31.066Z,70.16
2018-07-10T04:17:11.600Z,70
2018-07-10T04:17:52.183Z,69.78
2018-07-10T04:18:32.674Z,69.68
2018-07-10T04:19:13.232Z,70.26
2018-07-10T04:19:53.754Z,70.36
2018-07-10T04:20:34.286Z,70.26
2018-07-10T04:21:14.800Z,70.26
2018-07-10T04:21:55.318Z,70.16
2018-07-10T04:22:35.848Z,70.64
2018-07-10T04:23:16.390Z,69.97
2018-07-10T04:23:56.904Z,70.36
2018-07-10T04:24:37.590Z,70.64
2018-07-10T04:25:18.108Z,70.94
2018-07-10T04:25:58.673Z,70.84
2018-07-10T04:26:39.156Z,70.84
2018-07-10T04:27:19.669Z,70.64
2018-07-10T04:28:00.195Z,71.51
2018-07-10T04:28:40.701Z,71.51
2018-07-10T04:29:21.221Z,71.8
2018-07-10T04:30:01.759Z,71.9
2018-07-10T04:30:42.258Z,71.51
2018-07-10T04:31:22.799Z,72.19
2018-07-10T04:32:03.363Z,71.22
2018-07-10T04:32:44.529Z,71.12
2018-07-10T04:33:25.036Z,71.32
2018-07-10T04:34:05.562Z,70.94
2018-07-10T04:34:46.091Z,70.94
2018-07-10T04:35:26.614Z,71.36
2018-07-10T04:36:07.145Z,70.97
2018-07-10T04:36:47.665Z,70.68
2018-07-10T04:37:28.200Z,70.58
2018-07-10T04:38:08.712Z,70.58
2018-07-10T04:38:49.232Z,70.87
2018-07-10T04:39:29.757Z,70.68
2018-07-10T04:40:10.278Z,71.06
2018-07-10T04:40:50.800Z,71.42
2018-07-10T04:41:31.311Z,72.19
2018-07-10T04:42:11.840Z,72.38
2018-07-10T04:42:52.365Z,72.09
2018-07-10T04:43:32.888Z,72.38
2018-07-10T04:44:13.429Z,71.61
2018-07-10T04:44:53.977Z,71.9
2018-07-10T04:45:34.497Z,72.28
2018-07-10T04:46:15.012Z,71.9
2018-07-10T04:46:55.528Z,72.38
2018-07-10T04:47:36.047Z,71.8
2018-07-10T04:48:16.578Z,71.9
2018-07-10T04:48:57.101Z,72.19
2018-07-10T04:49:37.624Z,71.94
2018-07-10T04:50:18.150Z,71.74
2018-07-10T04:50:58.656Z,71.8
2018-07-10T04:51:39.173Z,71.8
2018-07-10T04:52:19.704Z,71.94
2018-07-10T04:53:00.216Z,71.8
2018-07-10T04:53:40.734Z,71.42
2018-07-10T04:54:21.279Z,71.94
2018-07-10T04:55:01.807Z,71.16
2018-07-10T04:55:42.330Z,71.45
2018-07-10T04:56:22.859Z,71.45
2018-07-10T04:57:03.379Z,71.55
2018-07-10T04:57:43.900Z,71.61
2018-07-10T04:58:24.425Z,72
2018-07-10T04:59:04.953Z,72.09
2018-07-10T04:59:45.499Z,71.94
2018-07-10T05:00:26.018Z,71.06
2018-07-10T05:01:06.626Z,71.45
2018-07-10T05:01:47.166Z,71.26
2018-07-10T05:02:27.722Z,71.55
2018-07-10T05:03:08.251Z,71.06
2018-07-10T05:03:48.777Z,70.39
2018-07-10T05:04:29.307Z,70.68
2018-07-10T05:05:09.821Z,70.58
2018-07-10T05:05:50.385Z,73.19
2018-07-10T05:06:30.865Z,78.02
2018-07-10T05:07:11.397Z,75.41
2018-07-10T05:07:51.918Z,77.73
2018-07-10T05:08:32.461Z,73.58
2018-07-10T05:09:12.985Z,72.9
2018-07-10T05:09:53.526Z,74.35
2018-07-10T05:10:34.048Z,80.72
2018-07-10T05:11:14.616Z,81.2
2018-07-10T05:11:55.128Z,79.27
2018-07-10T05:12:35.641Z,80.14
2018-07-10T05:13:16.155Z,81.88
2018-07-10T05:13:56.668Z,81.4
2018-07-10T05:14:37.195Z,81.53
2018-07-10T05:15:17.711Z,82.11
2018-07-10T05:15:58.228Z,79.99
2018-07-10T05:16:38.742Z,79.31
2018-07-10T05:17:19.280Z,80.95
2018-07-10T05:17:59.808Z,80.66
2018-07-10T05:18:40.317Z,80.66
2018-07-10T05:19:20.839Z,82.98
2018-07-10T05:20:01.420Z,81.44
2018-07-10T05:20:41.920Z,80.38
2018-07-10T05:21:22.469Z,82.4
2018-07-10T05:22:02.993Z,84.53
2018-07-10T05:22:43.518Z,84.82
2018-07-10T05:23:24.046Z,84.43
2018-07-10T05:24:04.566Z,84.14
2018-07-10T05:24:45.083Z,82.6
2018-07-10T05:25:25.607Z,82.5
2018-07-10T05:26:06.131Z,82.5
2018-07-10T05:26:46.645Z,82.4
2018-07-10T05:27:27.158Z,82.98
2018-07-10T05:28:07.674Z,80.57
2018-07-10T05:28:48.270Z,80.18
2018-07-10T05:29:28.705Z,79.12
2018-07-10T05:30:09.225Z,76.51
2018-07-10T05:30:49.742Z,77.09
2018-07-10T05:31:30.274Z,77.19
2018-07-10T05:32:10.806Z,75.64
2018-07-10T05:34:29.258Z,77.57
2018-07-10T05:35:09.722Z,79.02
2018-07-10T05:35:50.239Z,76.22
2018-07-10T05:36:30.788Z,74.1
2018-07-10T05:37:11.349Z,74.77
2018-07-10T05:37:51.896Z,76.61
2018-07-10T05:38:32.423Z,78.44
2018-07-10T05:39:12.956Z,77.76
2018-07-10T05:39:53.476Z,78.73
2018-07-10T05:40:34.009Z,77.96
2018-07-10T05:41:14.517Z,77.38
2018-07-10T05:41:55.041Z,76.7
2018-07-10T05:42:35.559Z,75.84
2018-07-10T05:43:16.077Z,76.61
2018-07-10T05:43:56.594Z,76.22
2018-07-10T05:44:37.125Z,75.64
2018-07-10T05:45:17.625Z,75.78
2018-07-10T05:45:58.143Z,74.32
2018-07-10T05:46:38.678Z,75.68
2018-07-10T05:47:19.202Z,76.64
2018-07-10T05:47:59.722Z,79.93
2018-07-10T05:48:40.276Z,79.25
2018-07-10T05:49:20.824Z,79.25
2018-07-10T05:50:01.341Z,79.06
2018-07-10T05:50:41.851Z,80.03
2018-07-10T05:51:22.372Z,80.99
2018-07-10T05:52:02.974Z,81.77
2018-07-10T05:52:43.461Z,82.2
2018-07-10T05:53:24.009Z,85.58
2018-07-10T05:54:04.502Z,84.32
2018-07-10T05:54:45.018Z,85.58
2018-07-10T05:55:25.535Z,87.32
2018-07-10T05:56:06.083Z,85.68
2018-07-10T05:56:46.543Z,84.61
2018-07-10T05:57:27.067Z,83.55
2018-07-10T05:58:07.534Z,81.23
2018-07-10T05:58:48.032Z,85
2018-07-10T05:59:28.513Z,84.61
2018-07-10T06:00:09.027Z,85.39
2018-07-10T06:00:49.539Z,83.94
2018-07-10T06:01:30.044Z,85.68
2018-07-10T06:02:10.536Z,87.71
2018-07-10T06:02:51.081Z,85.58
2018-07-10T06:03:31.529Z,86.83
2018-07-10T06:04:12.011Z,87.23
2018-07-10T06:04:52.559Z,85
2018-07-10T06:05:33.077Z,86.2
2018-07-10T06:06:13.513Z,85.72
2018-07-10T06:06:54.038Z,84.56
2018-07-10T06:07:34.543Z,85.04
2018-07-10T06:08:15.015Z,86.98
2018-07-10T06:08:55.520Z,85.72
2018-07-10T06:09:35.999Z,86.2
2018-07-10T06:10:16.734Z,84.46
2018-07-10T06:10:57.228Z,86.2
2018-07-10T06:11:37.738Z,85.42
2018-07-10T06:12:18.244Z,87.27
2018-07-10T06:12:58.749Z,86.78
2018-07-10T06:13:39.212Z,87.65
2018-07-10T06:14:19.726Z,86.2
2018-07-10T06:15:00.262Z,83.11
2018-07-10T06:15:40.775Z,84.56
2018-07-10T06:16:21.318Z,84.46
2018-07-10T06:17:01.804Z,85.72
2018-07-10T06:17:42.401Z,82.72
2018-07-10T06:18:22.862Z,82.72
2018-07-10T06:19:03.411Z,84.27
2018-07-10T06:19:43.946Z,84.22
2018-07-10T06:20:24.413Z,83.45
2018-07-10T06:21:04.896Z,82.53
2018-07-10T06:21:45.398Z,79.49
2018-07-10T06:22:25.970Z,78.33
2018-07-10T06:23:06.370Z,82.97
2018-07-10T06:23:46.889Z,82.87
2018-07-10T06:24:27.433Z,81.13
2018-07-10T06:25:07.951Z,80.16
2018-07-10T06:25:48.480Z,79.1
2018-07-10T06:26:28.992Z,77.84
2018-07-10T06:27:09.503Z,79
2018-07-10T06:27:49.992Z,77.84
2018-07-10T06:28:30.498Z,78.91
2018-07-10T06:29:11.108Z,78.42
2018-07-10T06:29:51.592Z,77.75
2018-07-10T06:30:32.111Z,76.68
2018-07-10T06:31:12.622Z,77.65
2018-07-10T06:31:53.076Z,78.91
2018-07-10T06:32:33.619Z,80.55
2018-07-10T06:33:14.076Z,80.01
2018-07-10T06:33:54.580Z,77.69
2018-07-10T06:34:35.076Z,77.88
2018-07-10T06:35:15.583Z,77.4
2018-07-10T06:35:56.111Z,80.69
2018-07-10T06:36:36.629Z,79.43
2018-07-10T06:37:17.176Z,78.46
2018-07-10T06:37:57.715Z,77.78
2018-07-10T06:38:38.223Z,75.37
2018-07-10T06:39:18.751Z,76.72
2018-07-10T06:39:59.281Z,80.49
2018-07-10T06:40:39.819Z,74.46
2018-07-10T06:41:20.372Z,75.91
2018-07-10T06:42:00.875Z,75.81
2018-07-10T06:42:41.368Z,79.04
2018-07-10T06:43:21.880Z,74.88
2018-07-10T06:44:02.400Z,72.85
2018-07-10T06:44:42.920Z,77.88
2018-07-10T06:45:23.450Z,77.98
2018-07-10T06:46:03.971Z,83.83
2018-07-10T06:46:44.482Z,82.47
2018-07-10T06:47:25.032Z,76.91
2018-07-10T06:48:05.563Z,83.83
2018-07-10T06:48:46.224Z,78.85
2018-07-10T06:49:26.640Z,73.63
2018-07-10T06:50:07.180Z,80.49
2018-07-10T06:50:47.713Z,75.75
2018-07-10T06:51:28.223Z,76.62
2018-07-10T06:52:08.736Z,76.14
2018-07-10T06:52:49.574Z,82.43
2018-07-10T06:53:29.869Z,87.12
2018-07-10T06:54:10.284Z,86.24
2018-07-10T06:54:50.817Z,81.21
2018-07-10T06:55:31.433Z,85.47
2018-07-10T06:56:11.956Z,82.47
2018-07-10T06:56:52.516Z,79.37
2018-07-10T06:57:33.021Z,78.41
2018-07-10T06:58:13.566Z,79.6
2018-07-10T06:58:54.078Z,81.45
2018-07-10T06:59:34.566Z,81.64
2018-07-10T07:00:15.095Z,77.37
2018-07-10T07:00:55.615Z,83.48
2018-07-10T07:01:36.141Z,87.06
2018-07-10T07:02:16.647Z,86.77
2018-07-10T07:02:57.162Z,87.35
2018-07-10T07:03:37.687Z,85.55
2018-07-10T07:04:18.206Z,84.93
2018-07-10T07:04:58.709Z,83.96
2018-07-10T07:05:39.237Z,81.93
2018-07-10T07:06:19.768Z,80.67
2018-07-10T07:07:00.300Z,81.68
2018-07-10T07:07:40.938Z,77.12
2018-07-10T07:08:21.342Z,80.57
2018-07-10T07:09:01.878Z,81.64
2018-07-10T07:09:42.395Z,81.45
2018-07-10T07:10:22.944Z,81.45
2018-07-10T07:11:03.452Z,80.38
2018-07-10T07:11:43.978Z,80.52
2018-07-10T07:12:24.534Z,78.92
2018-07-10T07:13:05.050Z,76.54
2018-07-10T07:13:45.568Z,79.06
2018-07-10T07:14:26.111Z,79.99
2018-07-10T07:15:06.643Z,79.8
2018-07-10T07:15:47.235Z,72.24
2018-07-10T07:16:27.713Z,69.82
2018-07-10T07:17:08.237Z,73.21
2018-07-10T07:17:48.766Z,76.12
2018-07-10T07:18:29.295Z,79.12
2018-07-10T07:19:09.816Z,79.22
2018-07-10T07:19:50.332Z,79.12
2018-07-10T07:20:30.868Z,76.12
2018-07-10T07:21:11.407Z,73.02
2018-07-10T07:21:51.934Z,70.63
2018-07-10T07:22:32.464Z,74.99
2018-07-10T07:23:12.986Z,72.96
2018-07-10T07:23:53.583Z,74.99
2018-07-10T07:24:33.994Z,74.93
2018-07-10T07:25:14.501Z,77.06
2018-07-10T07:25:55.005Z,75.61
2018-07-10T07:26:35.552Z,81.72
2018-07-10T07:27:16.097Z,80.42
2018-07-10T07:27:56.619Z,77.51
2018-07-10T07:28:37.166Z,76.35
2018-07-10T07:29:17.664Z,75.09
2018-07-10T07:29:58.180Z,74.51
2018-07-10T07:30:38.678Z,75.09
2018-07-10T07:31:19.206Z,75.57
2018-07-10T07:31:59.729Z,74.7
2018-07-10T07:32:40.269Z,75.23
2018-07-10T07:33:20.805Z,79.1
2018-07-10T07:34:01.322Z,79.88
2018-07-10T07:34:41.850Z,79.72
2018-07-10T07:35:22.371Z,71.96
2018-07-10T07:36:02.900Z,73.58
2018-07-10T07:36:43.434Z,76.29
2018-07-10T07:37:23.967Z,79.2
2018-07-10T07:38:04.507Z,75.23
2018-07-10T07:38:45.043Z,75.51
2018-07-10T07:39:25.561Z,74.93
2018-07-10T07:40:06.116Z,74.41
2018-07-10T07:40:46.646Z,72.38
2018-07-10T07:41:27.173Z,76.83
2018-07-10T07:42:07.691Z,73.05
2018-07-10T07:42:48.234Z,72.15
2018-07-10T07:43:28.766Z,78.25
2018-07-10T07:44:09.504Z,76.89
2018-07-10T07:44:49.882Z,80.67
2018-07-10T07:45:30.383Z,74.34
2018-07-10T07:46:10.915Z,77.24
2018-07-10T07:46:51.441Z,69.95
2018-07-10T07:47:31.987Z,78.75
2018-07-10T07:48:12.524Z,81.56
2018-07-10T07:48:53.023Z,78.46
2018-07-10T07:49:33.551Z,72.27
2018-07-10T07:50:14.085Z,68.59
2018-07-10T07:50:54.592Z,69.92
2018-07-10T07:51:35.137Z,69.72
2018-07-10T07:52:15.591Z,68.27
2018-07-10T07:52:56.081Z,69.53
2018-07-10T07:53:36.592Z,69.04
2018-07-10T07:54:17.147Z,70.78
2018-07-10T07:54:57.680Z,68.95
2018-07-10T07:55:38.160Z,68.75
2018-07-10T07:56:18.705Z,67.11
2018-07-10T07:56:59.232Z,69.53
2018-07-10T07:57:39.769Z,69.68
2018-07-10T07:58:20.312Z,66.4
2018-07-10T07:59:00.808Z,68.72
2018-07-10T07:59:41.324Z,70.94
2018-07-10T08:00:21.904Z,69.98
2018-07-10T08:01:02.381Z,71.33
2018-07-10T08:01:42.909Z,69.98
2018-07-10T08:02:23.457Z,68.72
2018-07-10T08:03:03.978Z,71.52
2018-07-10T08:03:44.516Z,73.16
2018-07-10T08:04:25.066Z,75.2
2018-07-10T08:05:05.567Z,73.65
2018-07-10T08:05:46.177Z,75.23
2018-07-10T08:06:26.691Z,70.98
2018-07-10T08:07:07.211Z,76.97
2018-07-10T08:07:47.729Z,73.97
2018-07-10T08:08:28.266Z,73.59
2018-07-10T08:09:08.795Z,76.68
2018-07-10T08:09:49.322Z,75.04
2018-07-10T08:10:29.838Z,77.75
2018-07-10T08:11:10.358Z,75.65
2018-07-10T08:11:50.914Z,77.98
2018-07-10T08:12:31.391Z,74.88
2018-07-10T08:13:11.919Z,72.14
2018-07-10T08:13:52.435Z,72.75
2018-07-10T08:14:32.980Z,66.47
2018-07-10T08:15:13.492Z,67.18
2018-07-10T08:15:53.981Z,68.53
2018-07-10T08:16:34.501Z,68.73
2018-07-10T08:17:14.992Z,76.37
2018-07-10T08:17:55.554Z,72.4
2018-07-10T08:18:36.080Z,64.75
2018-07-10T08:19:16.704Z,63.11
2018-07-10T08:19:57.159Z,62.82
2018-07-10T08:20:37.696Z,68.24
2018-07-10T08:21:18.215Z,71.82
2018-07-10T08:21:58.736Z,73.57
2018-07-10T08:22:39.258Z,74.73
2018-07-10T08:23:19.785Z,69.98
2018-07-10T08:24:00.319Z,71.53
2018-07-10T08:24:40.856Z,74.43
2018-07-10T08:25:21.384Z,74.53
2018-07-10T08:26:01.917Z,74.98
2018-07-10T08:26:42.459Z,77.88
2018-07-10T08:27:22.956Z,76.04
2018-07-10T08:28:03.482Z,72.66
2018-07-10T08:28:44.008Z,68.49
2018-07-10T08:29:24.555Z,76.82
2018-07-10T08:30:05.063Z,75.75
2018-07-10T08:30:45.576Z,76.82
2018-07-10T08:31:26.094Z,77.5
2018-07-10T08:32:06.616Z,69.62
2018-07-10T08:32:47.116Z,75.62
2018-07-10T08:33:27.766Z,68.27
2018-07-10T08:34:08.170Z,66.82
2018-07-10T08:34:48.716Z,74.85
2018-07-10T08:35:29.220Z,72.91
2018-07-10T08:36:09.829Z,68.27
2018-07-10T08:36:50.369Z,78.03
2018-07-10T08:37:30.889Z,75.23
2018-07-10T08:38:11.454Z,75.27
2018-07-10T08:38:51.998Z,67.49
2018-07-10T08:39:32.528Z,75.52
2018-07-10T08:40:13.053Z,74.46
2018-07-10T08:40:53.595Z,80.07
2018-07-10T08:41:34.123Z,72.81
2018-07-10T08:42:14.664Z,78.23
2018-07-10T08:42:55.219Z,72.04
2018-07-10T08:43:35.757Z,76.1
2018-07-10T08:44:16.295Z,73.2
2018-07-10T08:44:56.814Z,71.52
2018-07-10T08:45:37.329Z,73.65